Ages, Kentucky
Current Conditions -  °F | °C
As of 5:15 PM on Sunday 25 Jan 2015 (Local Time) from KI35 Reporting Station
Overcast Overcast  
Wind Chill: 46°   Ceiling: 4900
Heat Index: 46°   Visibility: 10mi
Dew Point: 32°   Wind: 0mph
Humidity: 57%   Direction: NA
Pressure: 29.7"   Gusts: NA
Location:  36.8576°N, 83.2467°W
Report Text: KI35 252215Z AUTO 00000KT 10SM SCT043 BKN049 OVC060 08/00 A2970 RMK AO1
Loading
Personal Weather Stations






























Interactive Weather Map New forecast layout! Learn more

10-Day Weather Forecast

Advertisements
Track Severe Weather on mobile